createdAt,value
2023-03-28T00:01:16.330Z,94812.00
2023-03-28T00:03:43.406Z,94823.00
2023-03-28T00:06:16.844Z,94817.00
2023-03-28T00:08:47.873Z,94817.00
2023-03-28T00:11:20.780Z,94814.00
2023-03-28T00:14:01.493Z,94818.00
2023-03-28T00:16:32.616Z,94819.00
2023-03-28T00:19:06.621Z,94828.00
2023-03-28T00:21:41.379Z,94818.00
2023-03-28T00:24:13.734Z,94815.00
2023-03-28T00:26:45.325Z,94826.00
2023-03-28T00:29:16.638Z,94825.00
2023-03-28T00:31:48.321Z,94821.00
2023-03-28T00:34:16.057Z,94821.00
2023-03-28T00:36:45.512Z,94821.00
2023-03-28T00:39:15.362Z,94826.00
2023-03-28T00:41:44.669Z,94828.00
2023-03-28T00:44:48.568Z,94828.00
2023-03-28T00:47:43.977Z,94839.00
2023-03-28T00:50:28.222Z,94831.00
2023-03-28T00:53:10.428Z,94830.00
2023-03-28T00:55:45.718Z,94837.00
2023-03-28T00:58:18.056Z,94830.00
2023-03-28T01:00:46.891Z,94835.00
2023-03-28T01:03:18.802Z,94837.00
2023-03-28T01:05:47.945Z,94840.00
2023-03-28T01:08:26.781Z,94836.00
2023-03-28T01:10:54.209Z,94838.00
2023-03-28T01:13:28.263Z,94844.00
2023-03-28T01:15:55.794Z,94843.00
2023-03-28T01:18:23.418Z,94840.00
2023-03-28T01:21:07.986Z,94835.00
2023-03-28T01:24:21.852Z,94842.00
2023-03-28T01:27:14.590Z,94848.00
2023-03-28T01:30:14.874Z,94851.00
2023-03-28T01:33:22.189Z,94856.00
2023-03-28T01:36:35.315Z,94857.00
2023-03-28T01:39:52.019Z,94851.00
2023-03-28T01:42:38.056Z,94854.00
2023-03-28T01:45:19.156Z,94851.00
2023-03-28T01:48:24.919Z,94858.00
2023-03-28T01:51:12.913Z,94859.00
2023-03-28T01:53:56.360Z,94859.00
2023-03-28T01:56:39.899Z,94846.00
2023-03-28T01:59:45.630Z,94849.00
2023-03-28T02:02:30.638Z,94853.00
2023-03-28T02:05:04.250Z,94853.00
2023-03-28T02:07:35.242Z,94850.00
2023-03-28T02:10:07.188Z,94850.00
2023-03-28T02:12:48.501Z,94845.00
2023-03-28T02:15:19.180Z,94840.00
2023-03-28T02:17:52.841Z,94842.00
2023-03-28T02:20:28.023Z,94839.00
2023-03-28T02:23:22.998Z,94832.00
2023-03-28T02:25:52.581Z,94830.00
2023-03-28T02:28:20.405Z,94834.00
2023-03-28T02:30:47.596Z,94831.00
2023-03-28T02:33:39.110Z,94841.00
2023-03-28T02:36:50.453Z,94831.00
2023-03-28T02:39:23.034Z,94837.00
2023-03-28T02:42:32.972Z,94834.00
2023-03-28T02:45:23.236Z,94832.00
2023-03-28T02:48:35.710Z,94832.00
2023-03-28T02:51:17.597Z,94844.00
2023-03-28T02:54:23.273Z,94846.00
2023-03-28T02:57:01.868Z,94838.00
2023-03-28T02:59:48.850Z,94837.00
2023-03-28T03:02:23.222Z,94840.00
2023-03-28T03:04:51.282Z,94832.00
2023-03-28T03:07:21.789Z,94840.00
2023-03-28T03:09:53.593Z,94835.00
2023-03-28T03:12:24.072Z,94842.00
2023-03-28T03:14:51.109Z,94836.00
2023-03-28T03:17:18.950Z,94840.00
2023-03-28T03:19:48.452Z,94833.00
2023-03-28T03:22:20.891Z,94837.00
2023-03-28T03:24:51.129Z,94835.00
2023-03-28T03:27:19.335Z,94828.00
2023-03-28T03:29:46.511Z,94830.00
2023-03-28T03:32:15.968Z,94822.00
2023-03-28T03:34:42.876Z,94828.00
2023-03-28T03:37:10.027Z,94824.00
2023-03-28T03:39:36.919Z,94820.00
2023-03-28T03:42:04.367Z,94819.00
2023-03-28T03:44:31.559Z,94819.00
2023-03-28T03:46:58.471Z,94819.00
2023-03-28T03:49:25.621Z,94820.00
2023-03-28T03:51:52.514Z,94815.00
2023-03-28T03:54:21.619Z,94818.00
2023-03-28T03:56:48.634Z,94825.00
2023-03-28T03:59:18.521Z,94824.00
2023-03-28T04:01:50.248Z,94819.00
2023-03-28T04:04:19.701Z,94830.00
2023-03-28T04:06:46.539Z,94831.00
2023-03-28T04:09:13.523Z,94829.00
2023-03-28T04:11:40.364Z,94840.00
2023-03-28T04:14:07.282Z,94839.00
2023-03-28T04:16:40.532Z,94829.00
2023-03-28T04:19:10.747Z,94845.00
2023-03-28T04:21:41.608Z,94847.00
2023-03-28T04:24:15.328Z,94843.00
2023-03-28T04:26:45.879Z,94844.00
2023-03-28T04:29:13.311Z,94843.00
2023-03-28T04:31:49.786Z,94848.00
2023-03-28T04:34:20.162Z,94844.00
2023-03-28T04:36:47.126Z,94859.00
2023-03-28T04:39:14.170Z,94857.00
2023-03-28T04:41:46.282Z,94859.00
2023-03-28T04:44:16.140Z,94851.00
2023-03-28T04:46:42.941Z,94857.00
2023-03-28T04:49:11.950Z,94849.00
2023-03-28T04:51:41.233Z,94857.00
2023-03-28T04:54:11.257Z,94829.00
2023-03-28T04:56:38.252Z,94848.00
2023-03-28T04:59:07.430Z,94858.00
2023-03-28T05:01:36.609Z,94855.00
2023-03-28T05:04:03.698Z,94854.00
2023-03-28T05:06:30.599Z,94859.00
2023-03-28T05:08:57.785Z,94870.00
2023-03-28T05:11:27.139Z,94866.00
2023-03-28T05:13:54.017Z,94853.00
2023-03-28T05:16:25.578Z,94874.00
2023-03-28T05:18:56.205Z,94874.00
2023-03-28T05:21:25.900Z,94877.00
2023-03-28T05:23:52.896Z,94865.00
2023-03-28T05:26:19.733Z,94883.00
2023-03-28T05:28:47.156Z,94885.00
2023-03-28T05:31:17.371Z,94892.00
2023-03-28T05:33:44.483Z,94890.00
2023-03-28T05:36:14.368Z,94891.00
2023-03-28T05:38:41.297Z,94897.00
2023-03-28T05:41:10.661Z,94903.00
2023-03-28T05:43:40.168Z,94909.00
2023-03-28T05:46:09.772Z,94908.00
2023-03-28T05:48:39.158Z,94918.00
2023-03-28T05:51:09.165Z,94909.00
2023-03-28T05:53:36.136Z,94911.00
2023-03-28T05:56:03.138Z,94916.00
2023-03-28T05:58:30.015Z,94926.00
2023-03-28T06:01:04.484Z,94924.00
2023-03-28T06:03:32.136Z,94922.00
2023-03-28T06:05:59.909Z,94929.00
2023-03-28T06:08:27.437Z,94939.00
2023-03-28T06:11:00.448Z,94939.00
2023-03-28T06:13:27.748Z,94931.00
2023-03-28T06:15:59.229Z,94928.00
2023-03-28T06:18:28.243Z,94940.00
2023-03-28T06:20:57.315Z,94937.00
2023-03-28T06:23:24.998Z,94932.00
2023-03-28T06:25:51.969Z,94940.00
2023-03-28T06:28:18.902Z,94941.00
2023-03-28T06:30:52.902Z,94938.00
2023-03-28T06:33:19.828Z,94934.00
2023-03-28T06:35:49.294Z,94942.00
2023-03-28T06:38:16.192Z,94939.00
2023-03-28T06:40:45.927Z,94945.00
2023-03-28T06:43:14.864Z,94937.00
2023-03-28T06:45:48.951Z,94936.00
2023-03-28T06:48:18.776Z,94940.00
2023-03-28T06:50:50.140Z,94936.00
2023-03-28T06:53:18.320Z,94935.00
2023-03-28T06:55:46.040Z,94928.00
2023-03-28T06:58:13.235Z,94936.00
2023-03-28T07:00:40.303Z,94939.00
2023-03-28T07:03:07.477Z,94926.00
2023-03-28T07:05:40.254Z,94929.00
2023-03-28T07:08:13.749Z,94926.00
2023-03-28T07:10:41.916Z,94917.00
2023-03-28T07:13:09.109Z,94929.00
2023-03-28T07:15:36.286Z,94925.00
2023-03-28T07:18:03.431Z,94939.00
2023-03-28T07:20:30.403Z,94941.00
2023-03-28T07:22:57.392Z,94940.00
2023-03-28T07:25:25.960Z,94936.00
2023-03-28T07:27:58.014Z,94947.00
2023-03-28T07:30:25.569Z,94946.00
2023-03-28T07:33:09.355Z,94937.00
2023-03-28T07:35:41.743Z,94955.00
2023-03-28T07:38:10.072Z,94941.00
2023-03-28T07:40:37.024Z,94948.00
2023-03-28T07:43:04.097Z,94928.00
2023-03-28T07:45:31.519Z,94951.00
2023-03-28T07:48:00.939Z,94940.00
2023-03-28T07:50:36.635Z,94932.00
2023-03-28T07:53:06.546Z,94937.00
2023-03-28T07:58:08.912Z,94952.00
2023-03-28T08:00:40.882Z,94940.00
2023-03-28T08:03:12.371Z,94940.00
2023-03-28T08:05:39.549Z,94937.00
2023-03-28T08:08:07.960Z,94938.00
2023-03-28T08:10:35.610Z,94941.00
2023-03-28T08:13:02.454Z,94947.00
2023-03-28T08:15:29.413Z,94929.00
2023-03-28T08:17:56.379Z,94933.00
2023-03-28T08:20:25.751Z,94931.00
2023-03-28T08:22:54.827Z,94935.00
2023-03-28T08:25:24.231Z,94932.00
2023-03-28T08:27:51.081Z,94936.00
2023-03-28T08:30:20.575Z,94940.00
2023-03-28T08:32:51.030Z,94936.00
2023-03-28T08:35:22.819Z,94932.00
2023-03-28T08:37:51.329Z,94927.00
2023-03-28T08:40:23.256Z,94941.00
2023-03-28T08:42:56.649Z,94945.00
2023-03-28T08:45:43.560Z,94953.00
2023-03-28T08:48:16.522Z,94947.00
2023-03-28T08:50:51.543Z,94955.00
2023-03-28T08:53:26.492Z,94953.00
2023-03-28T08:55:57.592Z,94955.00
2023-03-28T08:58:31.758Z,94958.00
2023-03-28T09:01:01.742Z,94955.00
2023-03-28T09:03:36.316Z,94959.00
2023-03-28T09:06:29.544Z,94960.00
2023-03-28T09:09:39.747Z,94961.00
2023-03-28T09:12:31.903Z,94957.00
2023-03-28T09:15:18.644Z,94969.00
2023-03-28T09:18:31.758Z,94961.00
2023-03-28T09:21:18.929Z,94967.00
2023-03-28T09:24:02.290Z,94965.00
2023-03-28T09:26:47.804Z,94966.00
2023-03-28T09:29:19.258Z,94958.00
2023-03-28T09:31:51.396Z,94963.00
2023-03-28T09:34:27.768Z,94960.00
2023-03-28T09:37:31.060Z,94966.00
2023-03-28T09:40:08.292Z,94960.00
2023-03-28T09:43:07.690Z,94958.00
2023-03-28T09:45:46.759Z,94965.00
2023-03-28T09:48:29.463Z,94963.00
2023-03-28T09:50:59.033Z,94968.00
2023-03-28T09:53:36.201Z,94957.00
2023-03-28T09:56:38.628Z,94958.00
2023-03-28T09:59:21.643Z,94962.00
2023-03-28T10:01:53.279Z,94959.00
2023-03-28T10:04:29.968Z,94953.00
2023-03-28T10:07:30.389Z,94958.00
2023-03-28T10:10:02.382Z,94948.00
2023-03-28T10:12:43.643Z,94957.00
2023-03-28T10:15:46.871Z,94951.00
2023-03-28T10:18:20.901Z,94962.00
2023-03-28T10:20:52.112Z,94954.00
2023-03-28T10:23:24.573Z,94955.00
2023-03-28T10:26:01.361Z,94951.00
2023-03-28T10:28:37.836Z,94947.00
2023-03-28T10:31:06.079Z,94942.00
2023-03-28T10:33:42.649Z,94945.00
2023-03-28T10:36:16.731Z,94930.00
2023-03-28T10:38:44.178Z,94925.00
2023-03-28T10:41:26.540Z,94927.00
2023-03-28T10:43:55.850Z,94927.00
2023-03-28T10:46:41.193Z,94925.00
2023-03-28T10:49:17.783Z,94921.00
2023-03-28T10:51:45.812Z,94917.00
2023-03-28T10:54:58.051Z,94912.00
2023-03-28T10:57:42.126Z,94906.00
2023-03-28T11:00:29.396Z,94893.00
2023-03-28T11:03:10.493Z,94906.00
2023-03-28T11:06:05.757Z,94901.00
2023-03-28T11:09:07.971Z,94901.00
2023-03-28T11:11:59.189Z,94898.00
2023-03-28T11:14:48.862Z,94899.00
2023-03-28T11:17:57.710Z,94895.00
2023-03-28T11:20:32.000Z,94886.00
2023-03-28T11:23:21.767Z,94888.00
2023-03-28T11:26:09.589Z,94890.00
2023-03-28T11:29:07.198Z,94894.00
2023-03-28T11:31:46.153Z,94890.00
2023-03-28T11:34:43.342Z,94897.00
2023-03-28T11:37:31.318Z,94892.00
2023-03-28T11:40:17.257Z,94891.00
2023-03-28T11:43:26.441Z,94876.00
2023-03-28T11:46:13.046Z,94877.00
2023-03-28T11:48:53.115Z,94875.00
2023-03-28T11:51:38.942Z,94871.00
2023-03-28T11:54:20.516Z,94869.00
2023-03-28T11:57:39.522Z,94864.00
2023-03-28T12:03:14.305Z,94862.00
2023-03-28T12:05:52.488Z,94859.00
2023-03-28T12:08:57.239Z,94862.00
2023-03-28T12:11:56.444Z,94859.00
2023-03-28T12:14:37.561Z,94854.00
2023-03-28T12:17:18.746Z,94855.00
2023-03-28T12:19:48.597Z,94849.00
2023-03-28T12:22:32.375Z,94845.00
2023-03-28T12:25:28.997Z,94829.00
2023-03-28T12:28:11.000Z,94829.00
2023-03-28T12:30:48.854Z,94829.00
2023-03-28T12:33:47.479Z,94819.00
2023-03-28T12:36:36.775Z,94828.00
2023-03-28T12:39:34.965Z,94827.00
2023-03-28T12:42:12.439Z,94829.00
2023-03-28T12:44:46.497Z,94825.00
2023-03-28T12:47:24.603Z,94819.00
2023-03-28T12:50:03.059Z,94810.00
2023-03-28T12:52:38.151Z,94807.00
2023-03-28T12:55:28.878Z,94816.00
2023-03-28T12:58:28.415Z,94813.00
2023-03-28T13:01:07.639Z,94814.00
2023-03-28T13:04:30.911Z,94814.00
2023-03-28T13:07:21.332Z,94802.00
2023-03-28T13:10:24.325Z,94810.00
2023-03-28T13:13:13.149Z,94806.00
2023-03-28T13:16:08.822Z,94807.00
2023-03-28T13:19:04.334Z,94794.00
2023-03-28T13:21:44.823Z,94793.00
2023-03-28T13:24:35.981Z,94794.00
2023-03-28T13:27:33.158Z,94802.00
2023-03-28T13:30:15.402Z,94789.00
2023-03-28T13:32:52.514Z,94790.00
2023-03-28T13:35:37.886Z,94793.00
2023-03-28T13:38:29.377Z,94780.00
2023-03-28T13:41:06.629Z,94784.00
2023-03-28T13:43:43.178Z,94780.00
2023-03-28T13:46:28.621Z,94772.00
2023-03-28T13:49:10.781Z,94775.00
2023-03-28T13:51:49.728Z,94777.00
2023-03-28T13:54:16.777Z,94766.00
2023-03-28T13:56:47.194Z,94769.00
2023-03-28T13:59:23.890Z,94761.00
2023-03-28T14:01:55.438Z,94769.00
2023-03-28T14:04:27.479Z,94764.00
2023-03-28T14:06:57.250Z,94757.00
2023-03-28T14:09:27.720Z,94762.00
2023-03-28T14:12:05.211Z,94754.00
2023-03-28T14:14:50.358Z,94746.00
2023-03-28T14:17:28.182Z,94739.00
2023-03-28T14:20:08.000Z,94736.00
2023-03-28T14:22:52.702Z,94733.00
2023-03-28T14:25:26.528Z,94746.00
2023-03-28T14:27:56.754Z,94736.00
2023-03-28T14:30:28.548Z,94744.00
2023-03-28T14:33:16.350Z,94732.00
2023-03-28T14:35:46.459Z,94734.00
2023-03-28T14:38:16.773Z,94742.00
2023-03-28T14:40:45.700Z,94734.00
2023-03-28T14:43:13.696Z,94738.00
2023-03-28T14:45:48.000Z,94740.00
2023-03-28T14:48:22.020Z,94724.00
2023-03-28T14:50:52.951Z,94725.00
2023-03-28T14:53:34.571Z,94725.00
2023-03-28T14:56:13.778Z,94731.00
2023-03-28T14:58:44.084Z,94712.00
2023-03-28T15:01:22.658Z,94716.00
2023-03-28T15:04:06.632Z,94706.00
2023-03-28T15:06:40.569Z,94709.00
2023-03-28T15:09:29.237Z,94691.00
2023-03-28T15:12:07.982Z,94695.00
2023-03-28T15:14:41.222Z,94693.00
2023-03-28T15:17:23.853Z,94685.00
2023-03-28T15:19:58.120Z,94689.00
2023-03-28T15:22:29.689Z,94692.00
2023-03-28T15:24:57.067Z,94675.00
2023-03-28T15:27:35.725Z,94675.00
2023-03-28T15:30:16.131Z,94672.00
2023-03-28T15:32:48.450Z,94672.00
2023-03-28T15:35:33.048Z,94669.00
2023-03-28T15:38:05.734Z,94669.00
2023-03-28T15:40:45.990Z,94656.00
2023-03-28T15:43:31.972Z,94662.00
2023-03-28T15:46:02.270Z,94660.00
2023-03-28T15:48:36.397Z,94650.00
2023-03-28T15:51:21.978Z,94643.00
2023-03-28T15:53:50.903Z,94649.00
2023-03-28T15:56:25.248Z,94659.00
2023-03-28T15:59:01.948Z,94647.00
2023-03-28T16:01:32.462Z,94659.00
2023-03-28T16:04:28.650Z,94661.00
2023-03-28T16:07:14.067Z,94664.00
2023-03-28T16:09:47.803Z,94663.00
2023-03-28T16:12:15.844Z,94664.00
2023-03-28T16:14:49.178Z,94655.00
2023-03-28T16:17:16.209Z,94654.00
2023-03-28T16:19:45.333Z,94659.00
2023-03-28T16:22:12.276Z,94654.00
2023-03-28T16:24:41.441Z,94659.00
2023-03-28T16:27:08.404Z,94650.00
2023-03-28T16:29:35.366Z,94658.00
2023-03-28T16:32:02.268Z,94666.00
2023-03-28T16:34:32.259Z,94661.00
2023-03-28T16:36:59.198Z,94654.00
2023-03-28T16:39:28.492Z,94654.00
2023-03-28T16:41:55.433Z,94649.00
2023-03-28T16:44:24.693Z,94646.00
2023-03-28T16:46:53.928Z,94655.00
2023-03-28T16:51:55.753Z,94651.00
2023-03-28T16:54:24.140Z,94651.00
2023-03-28T16:56:51.222Z,94651.00
2023-03-28T16:59:20.836Z,94647.00
2023-03-28T17:01:48.603Z,94652.00
2023-03-28T17:04:15.847Z,94656.00
2023-03-28T17:06:42.747Z,94642.00
2023-03-28T17:09:12.106Z,94649.00
2023-03-28T17:11:42.747Z,94639.00
2023-03-28T17:14:09.648Z,94637.00
2023-03-28T17:16:40.586Z,94631.00
2023-03-28T17:19:09.815Z,94636.00
2023-03-28T17:21:37.518Z,94627.00
2023-03-28T17:24:11.229Z,94632.00
2023-03-28T17:26:41.290Z,94630.00
2023-03-28T17:29:09.961Z,94626.00
2023-03-28T17:31:37.162Z,94622.00
2023-03-28T17:34:04.587Z,94614.00
2023-03-28T17:36:34.837Z,94596.00
2023-03-28T17:39:06.890Z,94602.00
2023-03-28T17:41:33.797Z,94606.00
2023-03-28T17:44:00.977Z,94596.00
2023-03-28T17:46:28.088Z,94592.00
2023-03-28T17:48:55.403Z,94592.00
2023-03-28T17:51:22.705Z,94600.00
2023-03-28T17:53:54.713Z,94591.00
2023-03-28T17:56:24.493Z,94594.00
2023-03-28T17:58:51.910Z,94594.00
2023-03-28T18:01:19.779Z,94591.00
2023-03-28T18:03:51.622Z,94591.00
2023-03-28T18:06:18.718Z,94597.00
2023-03-28T18:08:48.333Z,94593.00
2023-03-28T18:11:20.239Z,94589.00
2023-03-28T18:13:52.570Z,94593.00
2023-03-28T18:16:19.613Z,94592.00
2023-03-28T18:18:48.900Z,94583.00
2023-03-28T18:21:18.770Z,94597.00
2023-03-28T18:23:48.226Z,94592.00
2023-03-28T18:26:15.588Z,94581.00
2023-03-28T18:28:42.835Z,94585.00
2023-03-28T18:31:16.632Z,94579.00
2023-03-28T18:33:46.605Z,94590.00
2023-03-28T18:36:16.385Z,94597.00
2023-03-28T18:38:44.585Z,94591.00
2023-03-28T18:41:14.458Z,94585.00
2023-03-28T18:43:45.593Z,94580.00
2023-03-28T18:46:16.192Z,94574.00
2023-03-28T18:48:44.837Z,94576.00
2023-03-28T18:51:11.938Z,94581.00
2023-03-28T18:53:38.963Z,94576.00
2023-03-28T18:56:09.383Z,94571.00
2023-03-28T18:58:39.484Z,94573.00
2023-03-28T19:01:11.372Z,94569.00
2023-03-28T19:03:42.449Z,94562.00
2023-03-28T19:06:15.099Z,94559.00
2023-03-28T19:08:45.118Z,94554.00
2023-03-28T19:11:17.010Z,94546.00
2023-03-28T19:13:46.813Z,94544.00
2023-03-28T19:16:18.464Z,94550.00
2023-03-28T19:18:46.879Z,94544.00
2023-03-28T19:21:16.714Z,94552.00
2023-03-28T19:23:48.614Z,94554.00
2023-03-28T19:26:18.832Z,94555.00
2023-03-28T19:28:49.525Z,94563.00
2023-03-28T19:31:17.879Z,94551.00
2023-03-28T19:33:47.497Z,94547.00
2023-03-28T19:36:14.548Z,94555.00
2023-03-28T19:38:41.498Z,94541.00
2023-03-28T19:41:20.034Z,94552.00
2023-03-28T19:43:49.462Z,94561.00
2023-03-28T19:46:32.399Z,94573.00
2023-03-28T19:49:06.326Z,94575.00
2023-03-28T19:51:34.286Z,94573.00
2023-03-28T19:54:01.523Z,94583.00
2023-03-28T19:56:33.468Z,94574.00
2023-03-28T19:59:00.591Z,94583.00
2023-03-28T20:01:27.717Z,94571.00
2023-03-28T20:03:54.844Z,94575.00
2023-03-28T20:06:23.485Z,94579.00
2023-03-28T20:08:55.708Z,94580.00
2023-03-28T20:11:26.589Z,94572.00
2023-03-28T20:13:53.490Z,94568.00
2023-03-28T20:16:23.654Z,94558.00
2023-03-28T20:18:54.816Z,94570.00
2023-03-28T20:21:21.739Z,94576.00
2023-03-28T20:23:50.202Z,94570.00
2023-03-28T20:26:25.997Z,94568.00
2023-03-28T20:28:59.427Z,94581.00
2023-03-28T20:31:27.779Z,94583.00
2023-03-28T20:33:56.240Z,94573.00
2023-03-28T20:36:28.339Z,94564.00
2023-03-28T20:38:55.818Z,94539.00
2023-03-28T20:41:24.022Z,94520.00
2023-03-28T20:43:53.104Z,94518.00
2023-03-28T20:46:22.475Z,94540.00
2023-03-28T20:48:56.958Z,94527.00
2023-03-28T20:51:29.194Z,94537.00
2023-03-28T20:54:00.818Z,94532.00
2023-03-28T20:56:29.694Z,94537.00
2023-03-28T20:58:59.538Z,94542.00
2023-03-28T21:01:32.863Z,94545.00
2023-03-28T21:04:02.811Z,94543.00
2023-03-28T21:06:38.143Z,94533.00
2023-03-28T21:09:14.409Z,94539.00
2023-03-28T21:11:44.704Z,94546.00
2023-03-28T21:14:14.053Z,94542.00
2023-03-28T21:16:44.027Z,94524.00
2023-03-28T21:19:10.999Z,94485.00
2023-03-28T21:21:38.133Z,94503.00
2023-03-28T21:24:07.209Z,94494.00
2023-03-28T21:26:34.414Z,94506.00
2023-03-28T21:29:03.694Z,94489.00
2023-03-28T21:31:33.238Z,94478.00
2023-03-28T21:34:00.937Z,94484.00
2023-03-28T21:36:28.407Z,94528.00
2023-03-28T21:38:59.374Z,94530.00
2023-03-28T21:41:29.584Z,94516.00
2023-03-28T21:43:56.844Z,94498.00
2023-03-28T21:46:26.619Z,94501.00
2023-03-28T21:48:53.987Z,94517.00
2023-03-28T21:51:26.241Z,94527.00
2023-03-28T21:53:55.836Z,94516.00
2023-03-28T21:56:23.095Z,94503.00
2023-03-28T21:58:50.138Z,94521.00
2023-03-28T22:01:20.201Z,94523.00
2023-03-28T22:03:48.006Z,94517.00
2023-03-28T22:06:17.351Z,94520.00
2023-03-28T22:08:52.413Z,94509.00
2023-03-28T22:11:27.858Z,94509.00
2023-03-28T22:14:01.497Z,94509.00
2023-03-28T22:16:39.047Z,94513.00
2023-03-28T22:19:08.786Z,94524.00
2023-03-28T22:21:37.161Z,94536.00
2023-03-28T22:24:07.128Z,94540.00
2023-03-28T22:26:34.602Z,94539.00
2023-03-28T22:29:06.774Z,94528.00
2023-03-28T22:31:33.911Z,94529.00
2023-03-28T22:34:06.291Z,94528.00
2023-03-28T22:36:38.044Z,94521.00
2023-03-28T22:39:04.947Z,94515.00
2023-03-28T22:41:31.873Z,94520.00
2023-03-28T22:43:59.319Z,94511.00
2023-03-28T22:46:26.290Z,94511.00
2023-03-28T22:48:58.322Z,94518.00
2023-03-28T22:51:30.164Z,94528.00
2023-03-28T22:54:01.897Z,94517.00
2023-03-28T22:56:31.837Z,94512.00
2023-03-28T22:59:04.803Z,94507.00
2023-03-28T23:01:34.497Z,94497.00
2023-03-28T23:04:01.454Z,94490.00
2023-03-28T23:06:31.515Z,94467.00
2023-03-28T23:09:00.965Z,94471.00
2023-03-28T23:11:27.859Z,94470.00
2023-03-28T23:13:56.940Z,94471.00
2023-03-28T23:16:23.873Z,94474.00
2023-03-28T23:18:50.822Z,94467.00
2023-03-28T23:21:17.718Z,94468.00
2023-03-28T23:23:46.431Z,94474.00
2023-03-28T23:26:14.397Z,94467.00
2023-03-28T23:28:43.935Z,94474.00
2023-03-28T23:31:12.020Z,94479.00
2023-03-28T23:33:46.326Z,94480.00
2023-03-28T23:36:20.958Z,94477.00
2023-03-28T23:38:51.388Z,94479.00
2023-03-28T23:41:21.025Z,94473.00
2023-03-28T23:43:50.549Z,94484.00
2023-03-28T23:46:20.505Z,94486.00
2023-03-28T23:48:47.476Z,94483.00
2023-03-28T23:51:16.667Z,94482.00
2023-03-28T23:53:43.634Z,94475.00
2023-03-28T23:56:11.649Z,94478.00
2023-03-28T23:58:38.615Z,94464.00
